createdAt,value
2022-11-21T00:01:23.870Z,94.83
2022-11-21T00:03:50.196Z,94.90
2022-11-21T00:06:16.569Z,94.84
2022-11-21T00:08:42.894Z,94.73
2022-11-21T00:11:09.269Z,94.78
2022-11-21T00:13:35.619Z,95.12
2022-11-21T00:16:01.933Z,95.15
2022-11-21T00:18:28.234Z,94.42
2022-11-21T00:20:54.563Z,94.41
2022-11-21T00:23:20.866Z,94.17
2022-11-21T00:25:47.177Z,93.71
2022-11-21T00:28:13.495Z,93.97
2022-11-21T00:30:39.812Z,94.05
2022-11-21T00:33:06.121Z,93.78
2022-11-21T00:35:32.898Z,93.04
2022-11-21T00:37:59.215Z,93.29
2022-11-21T00:40:25.529Z,93.26
2022-11-21T00:42:51.838Z,92.71
2022-11-21T00:45:23.895Z,92.20
2022-11-21T00:47:50.727Z,92.94
2022-11-21T00:50:17.047Z,93.01
2022-11-21T00:52:43.414Z,92.56
2022-11-21T00:55:09.722Z,92.36
2022-11-21T00:57:36.043Z,92.08
2022-11-21T01:00:02.360Z,92.51
2022-11-21T01:02:31.918Z,93.73
2022-11-21T01:04:58.221Z,93.95
2022-11-21T01:09:55.915Z,93.47
2022-11-21T01:12:22.224Z,92.89
2022-11-21T01:14:48.557Z,93.27
2022-11-21T01:17:14.887Z,93.56
2022-11-21T01:19:41.208Z,93.64
2022-11-21T01:22:07.525Z,94.42
2022-11-21T01:24:33.834Z,94.83
2022-11-21T01:27:00.140Z,94.87
2022-11-21T01:29:26.464Z,94.49
2022-11-21T01:31:52.841Z,93.70
2022-11-21T01:34:19.149Z,93.40
2022-11-21T01:36:45.461Z,93.38
2022-11-21T01:39:11.837Z,93.73
2022-11-21T01:41:38.142Z,93.39
2022-11-21T01:44:04.467Z,93.46
2022-11-21T01:46:30.787Z,93.74
2022-11-21T01:48:57.378Z,93.66
2022-11-21T01:51:23.697Z,93.74
2022-11-21T01:53:50.009Z,94.26
2022-11-21T01:56:16.335Z,94.27
2022-11-21T01:58:42.689Z,94.13
2022-11-21T02:01:09.144Z,94.03
2022-11-21T02:03:35.519Z,94.22
2022-11-21T02:06:01.853Z,93.54
2022-11-21T02:08:28.170Z,93.64
2022-11-21T02:10:54.541Z,93.63
2022-11-21T02:13:22.863Z,94.25
2022-11-21T02:15:49.173Z,93.78
2022-11-21T02:18:15.478Z,94.01
2022-11-21T02:20:41.792Z,93.62
2022-11-21T02:23:08.103Z,93.49
2022-11-21T02:25:34.424Z,93.83
2022-11-21T02:28:00.721Z,93.85
2022-11-21T02:30:27.925Z,94.25
2022-11-21T02:32:54.241Z,94.35
2022-11-21T02:35:20.569Z,94.36
2022-11-21T02:37:46.914Z,94.56
2022-11-21T02:40:13.233Z,94.82
2022-11-21T02:42:39.553Z,95.08
2022-11-21T02:45:05.865Z,95.23
2022-11-21T02:47:32.233Z,95.59
2022-11-21T02:49:58.545Z,96.40
2022-11-21T02:52:24.894Z,96.67
2022-11-21T02:54:51.214Z,96.58
2022-11-21T02:57:17.569Z,96.77
2022-11-21T02:59:43.875Z,96.63
2022-11-21T03:02:10.182Z,97.52
2022-11-21T03:04:36.514Z,97.53
2022-11-21T03:07:02.919Z,97.14
2022-11-21T03:09:29.296Z,97.14
2022-11-21T03:11:55.634Z,97.82
2022-11-21T03:14:21.955Z,97.91
2022-11-21T03:16:48.257Z,97.58
2022-11-21T03:19:14.578Z,97.43
2022-11-21T03:21:40.906Z,97.54
2022-11-21T03:24:07.220Z,97.69
2022-11-21T03:26:33.540Z,98.12
2022-11-21T03:28:59.874Z,98.21
2022-11-21T03:31:26.207Z,98.19
2022-11-21T03:33:52.537Z,98.48
2022-11-21T03:36:18.854Z,99.17
2022-11-21T03:38:45.155Z,98.74
2022-11-21T03:41:29.320Z,98.42
2022-11-21T03:43:55.641Z,99.17
2022-11-21T03:46:21.960Z,99.69
2022-11-21T03:48:48.264Z,99.29
2022-11-21T03:51:14.593Z,99.33
2022-11-21T03:53:40.903Z,99.18
2022-11-21T03:56:07.210Z,98.85
2022-11-21T03:58:33.526Z,98.57
2022-11-21T04:00:59.980Z,98.62
2022-11-21T04:03:26.294Z,98.72
2022-11-21T04:05:52.613Z,98.82
2022-11-21T04:08:18.930Z,99.04
2022-11-21T04:10:45.244Z,98.97
2022-11-21T04:13:11.550Z,99.28
2022-11-21T04:15:37.872Z,99.57
2022-11-21T04:18:04.192Z,99.49
2022-11-21T04:20:30.508Z,99.49
2022-11-21T04:22:56.816Z,99.47
2022-11-21T04:25:23.121Z,99.95
2022-11-21T04:27:49.450Z,100.00
2022-11-21T04:30:15.783Z,100.00
2022-11-21T04:32:42.103Z,100.00
2022-11-21T04:35:08.414Z,100.00
2022-11-21T04:37:34.745Z,100.00
2022-11-21T04:40:01.058Z,100.00
2022-11-21T04:42:27.396Z,100.00
2022-11-21T04:44:53.786Z,100.00
2022-11-21T04:47:20.106Z,100.00
2022-11-21T04:49:46.422Z,100.00
2022-11-21T04:52:12.917Z,100.00
2022-11-21T04:54:39.288Z,100.00
2022-11-21T04:57:05.757Z,100.00
2022-11-21T04:59:32.099Z,100.00
2022-11-21T05:01:58.418Z,100.00
2022-11-21T05:04:24.790Z,100.00
2022-11-21T05:06:51.146Z,100.00
2022-11-21T05:09:17.755Z,100.00
2022-11-21T05:12:02.838Z,100.00
2022-11-21T05:14:29.399Z,100.00
2022-11-21T05:16:55.970Z,100.00
2022-11-21T05:19:22.302Z,100.00
2022-11-21T05:21:48.620Z,100.00
2022-11-21T05:24:14.930Z,100.00
2022-11-21T05:26:41.362Z,100.00
2022-11-21T05:29:07.672Z,100.00
2022-11-21T05:31:33.990Z,100.00
2022-11-21T05:34:00.289Z,100.00
2022-11-21T05:36:26.617Z,100.00
2022-11-21T05:38:52.943Z,100.00
2022-11-21T05:41:19.260Z,100.00
2022-11-21T05:43:49.118Z,100.00
2022-11-21T05:46:15.521Z,100.00
2022-11-21T05:48:41.838Z,100.00
2022-11-21T05:51:08.156Z,100.00
2022-11-21T05:53:34.463Z,100.00
2022-11-21T05:56:00.846Z,100.00
2022-11-21T05:58:27.150Z,100.00
2022-11-21T06:00:59.773Z,100.00
2022-11-21T06:03:31.000Z,100.00
2022-11-21T06:05:57.468Z,100.00
2022-11-21T06:08:23.769Z,100.00
2022-11-21T06:10:50.100Z,100.00
2022-11-21T06:13:22.664Z,100.00
2022-11-21T06:15:49.333Z,100.00
2022-11-21T06:18:15.669Z,100.00
2022-11-21T06:20:42.305Z,100.00
2022-11-21T06:23:08.671Z,100.00
2022-11-21T06:25:34.973Z,100.00
2022-11-21T06:28:01.295Z,100.00
2022-11-21T06:30:27.593Z,100.00
2022-11-21T06:32:53.973Z,100.00
2022-11-21T06:35:20.341Z,100.00
2022-11-21T06:37:50.747Z,100.00
2022-11-21T06:40:19.649Z,100.00
2022-11-21T06:42:46.009Z,100.00
2022-11-21T06:45:12.394Z,100.00
2022-11-21T06:47:38.707Z,100.00
2022-11-21T06:50:05.173Z,100.00
2022-11-21T06:52:31.474Z,100.00
2022-11-21T06:54:57.804Z,100.00
2022-11-21T06:57:24.101Z,100.00
2022-11-21T06:59:50.452Z,100.00
2022-11-21T07:02:16.766Z,100.00
2022-11-21T07:04:43.090Z,100.00
2022-11-21T07:07:09.526Z,100.00
2022-11-21T07:09:38.139Z,100.00
2022-11-21T07:12:23.254Z,100.00
2022-11-21T07:14:49.585Z,100.00
2022-11-21T07:17:16.091Z,100.00
2022-11-21T07:19:42.447Z,100.00
2022-11-21T07:22:08.769Z,100.00
2022-11-21T07:24:35.362Z,100.00
2022-11-21T07:27:01.679Z,100.00
2022-11-21T07:29:28.227Z,100.00
2022-11-21T07:31:54.777Z,100.00
2022-11-21T07:34:21.124Z,100.00
2022-11-21T07:36:48.786Z,100.00
2022-11-21T07:39:15.125Z,100.00
2022-11-21T07:41:41.452Z,100.00
2022-11-21T07:44:07.764Z,100.00
2022-11-21T07:46:35.793Z,100.00
2022-11-21T07:49:03.778Z,100.00
2022-11-21T07:51:30.345Z,100.00
2022-11-21T07:53:56.736Z,100.00
2022-11-21T07:56:26.617Z,100.00
2022-11-21T07:58:53.099Z,100.00
2022-11-21T08:01:19.496Z,100.00
2022-11-21T08:03:45.847Z,100.00
2022-11-21T08:06:12.331Z,100.00
2022-11-21T08:08:38.674Z,100.00
2022-11-21T08:11:05.253Z,100.00
2022-11-21T08:13:32.451Z,100.00
2022-11-21T08:15:58.799Z,100.00
2022-11-21T08:18:25.113Z,100.00
2022-11-21T08:20:51.426Z,100.00
2022-11-21T08:23:17.750Z,100.00
2022-11-21T08:25:45.310Z,100.00
2022-11-21T08:28:11.690Z,100.00
2022-11-21T08:30:38.045Z,100.00
2022-11-21T08:33:04.374Z,100.00
2022-11-21T08:35:30.707Z,100.00
2022-11-21T08:37:57.375Z,100.00
2022-11-21T08:40:23.728Z,100.00
2022-11-21T08:42:50.063Z,100.00
2022-11-21T08:45:16.410Z,100.00
2022-11-21T08:47:42.728Z,100.00
2022-11-21T08:50:12.276Z,100.00
2022-11-21T08:52:38.615Z,100.00
2022-11-21T08:55:04.925Z,100.00
2022-11-21T08:57:31.853Z,100.00
2022-11-21T08:59:58.153Z,100.00
2022-11-21T09:02:24.464Z,100.00
2022-11-21T09:04:50.859Z,100.00
2022-11-21T09:07:17.249Z,100.00
2022-11-21T09:09:43.756Z,100.00
2022-11-21T09:12:10.149Z,100.00
2022-11-21T09:14:55.558Z,100.00
2022-11-21T09:17:40.721Z,100.00
2022-11-21T09:20:07.102Z,100.00
2022-11-21T09:22:33.469Z,100.00
2022-11-21T09:24:59.786Z,100.00
2022-11-21T09:27:26.104Z,100.00
2022-11-21T09:29:54.211Z,100.00
2022-11-21T09:32:20.844Z,100.00
2022-11-21T09:34:47.231Z,100.00
2022-11-21T09:37:17.013Z,100.00
2022-11-21T09:39:43.317Z,100.00
2022-11-21T09:42:09.654Z,100.00
2022-11-21T09:44:36.221Z,100.00
2022-11-21T09:47:02.623Z,100.00
2022-11-21T09:49:29.205Z,100.00
2022-11-21T09:51:55.711Z,100.00
2022-11-21T09:54:22.031Z,100.00
2022-11-21T09:56:48.604Z,100.00
2022-11-21T09:59:14.917Z,100.00
2022-11-21T10:01:41.241Z,100.00
2022-11-21T10:04:07.598Z,100.00
2022-11-21T10:06:33.964Z,100.00
2022-11-21T10:09:00.704Z,100.00
2022-11-21T10:11:27.022Z,100.00
2022-11-21T10:13:53.335Z,100.00
2022-11-21T10:16:19.638Z,100.00
2022-11-21T10:18:46.000Z,100.00
2022-11-21T10:21:12.368Z,100.00
2022-11-21T10:23:38.693Z,100.00
2022-11-21T10:26:05.097Z,100.00
2022-11-21T10:28:31.445Z,100.00
2022-11-21T10:30:57.761Z,100.00
2022-11-21T10:33:24.075Z,100.00
2022-11-21T10:35:50.394Z,100.00
2022-11-21T10:38:16.710Z,100.00
2022-11-21T10:40:43.073Z,100.00
2022-11-21T10:43:28.200Z,100.00
2022-11-21T10:45:54.553Z,100.00
2022-11-21T10:48:20.865Z,100.00
2022-11-21T10:50:47.203Z,100.00
2022-11-21T10:53:32.422Z,100.00
2022-11-21T10:55:58.788Z,100.00
2022-11-21T10:58:25.391Z,100.00
2022-11-21T11:00:51.813Z,100.00
2022-11-21T11:03:18.420Z,100.00
2022-11-21T11:05:44.756Z,99.88
2022-11-21T11:08:11.100Z,100.00
2022-11-21T11:10:37.421Z,100.00
2022-11-21T11:13:51.231Z,100.00
2022-11-21T11:16:08.859Z,99.76
2022-11-21T11:18:35.291Z,98.93
2022-11-21T11:21:01.619Z,97.57
2022-11-21T11:23:28.050Z,97.75
2022-11-21T11:25:54.433Z,98.32
2022-11-21T11:28:20.987Z,98.61
2022-11-21T11:30:47.367Z,98.95
2022-11-21T11:33:13.681Z,98.90
2022-11-21T11:35:40.603Z,97.71
2022-11-21T11:38:07.189Z,97.30
2022-11-21T11:40:33.594Z,96.68
2022-11-21T11:43:18.925Z,96.67
2022-11-21T11:46:03.710Z,95.46
2022-11-21T11:48:30.091Z,95.72
2022-11-21T11:50:56.417Z,95.52
2022-11-21T11:53:22.769Z,96.40
2022-11-21T11:55:49.109Z,96.47
2022-11-21T11:58:15.435Z,95.42
2022-11-21T12:00:45.118Z,95.95
2022-11-21T12:03:11.434Z,95.63
2022-11-21T12:05:37.752Z,96.21
2022-11-21T12:08:40.040Z,96.75
2022-11-21T12:11:09.340Z,97.50
2022-11-21T12:13:35.708Z,97.04
2022-11-21T12:16:08.661Z,95.89
2022-11-21T12:18:39.355Z,96.89
2022-11-21T12:21:05.679Z,97.11
2022-11-21T12:23:32.266Z,96.04
2022-11-21T12:25:58.584Z,94.95
2022-11-21T12:28:24.962Z,96.06
2022-11-21T12:30:51.410Z,97.34
2022-11-21T12:33:17.735Z,96.40
2022-11-21T12:35:44.047Z,96.59
2022-11-21T12:38:10.373Z,95.96
2022-11-21T12:40:36.723Z,96.71
2022-11-21T12:43:04.653Z,97.11
2022-11-21T12:45:32.190Z,96.43
2022-11-21T12:48:17.386Z,95.87
2022-11-21T12:51:02.483Z,95.57
2022-11-21T12:53:47.487Z,96.07
2022-11-21T12:56:13.788Z,96.63
2022-11-21T12:58:40.100Z,94.97
2022-11-21T13:01:06.531Z,94.24
2022-11-21T13:03:33.581Z,93.53
2022-11-21T13:05:59.984Z,94.90
2022-11-21T13:08:26.320Z,95.21
2022-11-21T13:11:12.620Z,93.78
2022-11-21T13:13:39.116Z,93.05
2022-11-21T13:16:05.459Z,92.21
2022-11-21T13:18:31.838Z,92.53
2022-11-21T13:20:59.158Z,93.83
2022-11-21T13:23:25.535Z,93.00
2022-11-21T13:25:52.677Z,92.15
2022-11-21T13:28:19.058Z,91.18
2022-11-21T13:30:45.404Z,90.73
2022-11-21T13:33:11.986Z,91.26
2022-11-21T13:35:38.374Z,92.86
2022-11-21T13:38:04.767Z,92.09
2022-11-21T13:40:31.095Z,92.65
2022-11-21T13:43:25.181Z,92.93
2022-11-21T13:45:43.933Z,94.00
2022-11-21T13:48:10.273Z,92.23
2022-11-21T13:50:36.640Z,92.84
2022-11-21T13:53:03.059Z,92.05
2022-11-21T13:55:29.471Z,90.98
2022-11-21T13:57:57.727Z,89.45
2022-11-21T14:00:24.118Z,89.71
2022-11-21T14:02:50.470Z,89.75
2022-11-21T14:05:17.399Z,90.03
2022-11-21T14:07:43.951Z,89.78
2022-11-21T14:10:12.188Z,89.80
2022-11-21T14:12:44.324Z,89.64
2022-11-21T14:15:11.221Z,89.89
2022-11-21T14:17:37.624Z,89.55
2022-11-21T14:20:03.941Z,89.38
2022-11-21T14:22:34.747Z,90.65
2022-11-21T14:25:01.940Z,90.52
2022-11-21T14:27:28.298Z,90.90
2022-11-21T14:29:55.203Z,91.89
2022-11-21T14:32:21.551Z,92.42
2022-11-21T14:34:47.911Z,92.65
2022-11-21T14:37:14.278Z,92.85
2022-11-21T14:39:44.152Z,93.32
2022-11-21T14:42:11.579Z,93.26
2022-11-21T14:44:37.984Z,93.99
2022-11-21T14:47:04.376Z,94.18
2022-11-21T14:49:30.789Z,95.01
2022-11-21T14:51:57.152Z,95.29
2022-11-21T14:54:23.523Z,95.55
2022-11-21T14:56:49.952Z,96.38
2022-11-21T14:59:16.274Z,97.14
2022-11-21T15:01:47.551Z,97.52
2022-11-21T15:04:14.294Z,96.60
2022-11-21T15:06:40.630Z,95.99
2022-11-21T15:11:53.513Z,97.05
2022-11-21T15:14:19.938Z,97.08
2022-11-21T15:16:47.308Z,96.82
2022-11-21T15:19:13.804Z,97.56
2022-11-21T15:21:40.162Z,97.71
2022-11-21T15:24:06.561Z,97.73
2022-11-21T15:26:32.879Z,97.43
2022-11-21T15:28:59.247Z,97.65
2022-11-21T15:31:25.754Z,98.00
2022-11-21T15:34:06.430Z,98.47
2022-11-21T15:36:38.684Z,99.44
2022-11-21T15:39:05.594Z,99.04
2022-11-21T15:41:31.973Z,100.00
2022-11-21T15:43:58.279Z,100.00
2022-11-21T15:46:24.667Z,99.34
2022-11-21T15:48:51.048Z,98.48
2022-11-21T15:51:20.492Z,98.63
2022-11-21T15:53:58.342Z,98.32
2022-11-21T15:56:24.746Z,99.08
2022-11-21T15:58:51.126Z,99.17
2022-11-21T16:01:17.533Z,99.20
2022-11-21T16:03:43.998Z,99.41
2022-11-21T16:06:10.607Z,98.68
2022-11-21T16:08:36.988Z,99.74
2022-11-21T16:11:03.330Z,99.89
2022-11-21T16:13:29.673Z,100.00
2022-11-21T16:15:55.985Z,99.38
2022-11-21T16:18:22.671Z,99.24
2022-11-21T16:20:49.067Z,99.26
2022-11-21T16:23:15.379Z,99.74
2022-11-21T16:25:43.075Z,99.95
2022-11-21T16:28:09.406Z,99.97
2022-11-21T16:30:35.774Z,100.00
2022-11-21T16:33:02.086Z,99.33
2022-11-21T16:35:28.412Z,99.67
2022-11-21T16:37:54.794Z,99.94
2022-11-21T16:40:21.175Z,99.18
2022-11-21T16:42:47.550Z,98.55
2022-11-21T16:45:14.075Z,98.41
2022-11-21T16:47:44.370Z,98.36
2022-11-21T16:50:14.814Z,97.91
2022-11-21T16:52:41.119Z,98.03
2022-11-21T16:55:07.505Z,97.94
2022-11-21T16:57:34.059Z,98.08
2022-11-21T17:00:00.768Z,97.79
2022-11-21T17:02:27.161Z,94.59
2022-11-21T17:04:53.501Z,93.79
2022-11-21T17:07:19.887Z,93.16
2022-11-21T17:09:46.258Z,93.45
2022-11-21T17:12:13.465Z,91.03
2022-11-21T17:14:39.776Z,91.73
2022-11-21T17:17:06.100Z,92.30
2022-11-21T17:19:32.490Z,91.22
2022-11-21T17:22:00.217Z,91.69
2022-11-21T17:24:26.818Z,91.01
2022-11-21T17:26:53.304Z,90.48
2022-11-21T17:29:19.608Z,89.47
2022-11-21T17:31:47.040Z,89.25
2022-11-21T17:34:13.496Z,90.66
2022-11-21T17:36:39.947Z,91.38
2022-11-21T17:39:06.284Z,92.28
2022-11-21T17:41:32.747Z,93.42
2022-11-21T17:43:59.759Z,94.16
2022-11-21T17:46:26.213Z,93.98
2022-11-21T17:48:55.299Z,94.01
2022-11-21T17:51:23.941Z,94.80
2022-11-21T17:53:50.261Z,94.89
2022-11-21T17:56:16.572Z,94.83
2022-11-21T17:58:42.900Z,95.44
2022-11-21T18:01:10.610Z,96.01
2022-11-21T18:03:37.311Z,96.49
2022-11-21T18:06:03.633Z,96.73
2022-11-21T18:08:30.022Z,97.63
2022-11-21T18:10:56.456Z,97.93
2022-11-21T18:13:22.786Z,98.02
2022-11-21T18:15:49.142Z,98.41
2022-11-21T18:18:15.527Z,98.90
2022-11-21T18:20:41.860Z,99.26
2022-11-21T18:23:08.604Z,99.51
2022-11-21T18:25:34.959Z,99.34
2022-11-21T18:28:01.286Z,99.39
2022-11-21T18:30:27.598Z,99.32
2022-11-21T18:32:53.897Z,99.74
2022-11-21T18:35:20.242Z,100.00
2022-11-21T18:37:47.000Z,100.00
2022-11-21T18:40:13.346Z,100.00
2022-11-21T18:42:39.659Z,100.00
2022-11-21T18:45:05.991Z,100.00
2022-11-21T18:47:32.311Z,100.00
2022-11-21T18:49:58.622Z,100.00
2022-11-21T18:52:25.023Z,100.00
2022-11-21T18:54:51.333Z,100.00
2022-11-21T18:57:17.651Z,100.00
2022-11-21T18:59:44.079Z,100.00
2022-11-21T19:02:10.436Z,100.00
2022-11-21T19:04:36.766Z,100.00
2022-11-21T19:07:03.359Z,100.00
2022-11-21T19:09:32.681Z,100.00
2022-11-21T19:11:59.337Z,100.00
2022-11-21T19:14:25.788Z,100.00
2022-11-21T19:16:52.325Z,100.00
2022-11-21T19:19:35.269Z,100.00
2022-11-21T19:22:04.356Z,100.00
2022-11-21T19:24:30.665Z,100.00
2022-11-21T19:26:57.205Z,100.00
2022-11-21T19:29:23.520Z,98.60
2022-11-21T19:31:50.070Z,96.77
2022-11-21T19:34:16.596Z,96.17
2022-11-21T19:36:42.999Z,94.82
2022-11-21T19:39:09.371Z,93.95
2022-11-21T19:41:35.722Z,93.53
2022-11-21T19:44:02.054Z,92.87
2022-11-21T19:46:28.874Z,92.53
2022-11-21T19:48:55.278Z,92.21
2022-11-21T19:51:21.617Z,93.32
2022-11-21T19:53:47.983Z,93.99
2022-11-21T19:56:14.303Z,93.77
2022-11-21T19:58:40.613Z,93.54
2022-11-21T20:01:07.307Z,93.31
2022-11-21T20:03:33.737Z,92.54
2022-11-21T20:06:00.046Z,91.78
2022-11-21T20:08:26.380Z,91.98
2022-11-21T20:10:52.739Z,91.95
2022-11-21T20:13:19.077Z,91.74
2022-11-21T20:15:45.403Z,92.58
2022-11-21T20:18:12.647Z,91.93
2022-11-21T20:20:38.983Z,92.16
2022-11-21T20:23:05.719Z,92.14
2022-11-21T20:25:32.032Z,91.75
2022-11-21T20:28:01.575Z,92.56
2022-11-21T20:30:27.929Z,93.17
2022-11-21T20:32:54.653Z,92.67
2022-11-21T20:35:20.970Z,92.55
2022-11-21T20:37:47.274Z,92.10
2022-11-21T20:40:13.588Z,91.86
2022-11-21T20:42:40.406Z,92.63
2022-11-21T20:47:53.039Z,93.80
2022-11-21T20:50:48.693Z,93.41
2022-11-21T20:53:50.766Z,93.75
2022-11-21T20:55:52.140Z,94.37
2022-11-21T20:58:18.458Z,94.58
2022-11-21T21:00:44.801Z,95.10
2022-11-21T21:03:11.111Z,95.84
2022-11-21T21:05:37.454Z,94.79
2022-11-21T21:08:03.926Z,94.42
2022-11-21T21:10:46.005Z,95.15
2022-11-21T21:13:16.635Z,94.83
2022-11-21T21:15:42.962Z,96.12
2022-11-21T21:18:09.292Z,97.36
2022-11-21T21:20:49.353Z,97.23
2022-11-21T21:23:21.926Z,97.40
2022-11-21T21:25:48.239Z,96.36
2022-11-21T21:28:14.573Z,96.22
2022-11-21T21:30:41.192Z,95.83
2022-11-21T21:33:07.502Z,95.58
2022-11-21T21:35:33.842Z,95.78
2022-11-21T21:38:01.920Z,95.95
2022-11-21T21:40:33.112Z,95.69
2022-11-21T21:42:59.504Z,95.85
2022-11-21T21:45:25.809Z,96.18
2022-11-21T21:47:52.431Z,96.26
2022-11-21T21:50:18.733Z,96.03
2022-11-21T21:52:45.042Z,95.95
2022-11-21T21:55:11.892Z,95.85
2022-11-21T21:57:43.546Z,95.41
2022-11-21T22:00:12.448Z,95.58
2022-11-21T22:02:39.832Z,95.54
2022-11-21T22:05:06.149Z,95.60
2022-11-21T22:07:32.552Z,95.39
2022-11-21T22:09:58.921Z,95.70
2022-11-21T22:12:25.520Z,95.81
2022-11-21T22:14:51.818Z,96.09
2022-11-21T22:17:18.175Z,96.21
2022-11-21T22:19:44.487Z,96.24
2022-11-21T22:22:10.830Z,95.98
2022-11-21T22:24:39.483Z,96.13
2022-11-21T22:27:06.073Z,96.15
2022-11-21T22:29:32.394Z,96.37
2022-11-21T22:31:58.723Z,97.00
2022-11-21T22:34:25.114Z,96.91
2022-11-21T22:36:51.438Z,97.57
2022-11-21T22:39:18.152Z,98.22
2022-11-21T22:41:44.566Z,97.83
2022-11-21T22:44:10.896Z,97.37
2022-11-21T22:46:37.382Z,96.96
2022-11-21T22:49:03.811Z,96.72
2022-11-21T22:51:30.386Z,96.63
2022-11-21T22:53:56.741Z,96.63
2022-11-21T22:56:23.091Z,96.62
2022-11-21T22:58:49.421Z,96.88
2022-11-21T23:01:15.785Z,96.69
2022-11-21T23:03:42.165Z,96.54
2022-11-21T23:06:08.497Z,96.56
2022-11-21T23:08:34.821Z,96.32
2022-11-21T23:11:01.123Z,96.25
2022-11-21T23:13:27.484Z,96.31
2022-11-21T23:15:53.799Z,96.42
2022-11-21T23:18:20.102Z,96.37
2022-11-21T23:20:46.571Z,96.15
2022-11-21T23:23:12.919Z,96.34
2022-11-21T23:25:39.338Z,96.02
2022-11-21T23:28:05.699Z,95.82
2022-11-21T23:30:32.051Z,95.61
2022-11-21T23:32:58.364Z,95.97
2022-11-21T23:35:24.680Z,95.91
2022-11-21T23:37:51.015Z,96.28
2022-11-21T23:40:17.347Z,96.17
2022-11-21T23:42:43.732Z,96.18
2022-11-21T23:45:10.086Z,96.81
2022-11-21T23:47:36.416Z,96.88
2022-11-21T23:50:02.721Z,97.14
2022-11-21T23:52:29.082Z,97.40
2022-11-21T23:54:55.925Z,97.51
2022-11-21T23:57:22.221Z,97.53
2022-11-21T23:59:48.570Z,97.85
